createdAt,value
2018-03-22T00:01:36.657Z,3.50
2018-03-22T00:04:04.193Z,3.50
2018-03-22T00:06:32.095Z,3.50
2018-03-22T00:09:00.853Z,3.50
2018-03-22T00:11:28.727Z,3.50
2018-03-22T00:13:56.627Z,3.50
2018-03-22T00:16:24.124Z,3.50
2018-03-22T00:18:51.723Z,3.50
2018-03-22T00:21:19.613Z,3.40
2018-03-22T00:23:47.131Z,3.40
2018-03-22T00:26:14.609Z,3.40
2018-03-22T00:28:42.491Z,3.50
2018-03-22T00:31:10.380Z,3.50
2018-03-22T00:33:37.931Z,3.50
2018-03-22T00:36:05.963Z,3.50
2018-03-22T00:38:33.569Z,3.50
2018-03-22T00:41:01.094Z,3.50
2018-03-22T00:43:28.617Z,3.50
2018-03-22T00:45:56.588Z,3.50
2018-03-22T00:48:24.207Z,3.40
2018-03-22T00:50:51.699Z,3.40
2018-03-22T00:53:19.639Z,3.40
2018-03-22T00:55:47.174Z,3.40
2018-03-22T00:58:14.711Z,3.40
2018-03-22T01:00:42.224Z,3.30
2018-03-22T01:03:09.729Z,3.30
2018-03-22T01:05:37.313Z,3.30
2018-03-22T01:08:04.996Z,3.30
2018-03-22T01:10:32.513Z,3.20
2018-03-22T01:13:00.402Z,3.10
2018-03-22T01:15:27.942Z,3.10
2018-03-22T01:17:55.859Z,3.10
2018-03-22T01:20:23.390Z,3.10
2018-03-22T01:22:51.286Z,3.20
2018-03-22T01:25:18.815Z,3.20
2018-03-22T01:27:46.437Z,3.20
2018-03-22T01:30:25.920Z,3.10
2018-03-22T01:32:53.907Z,3.10
2018-03-22T01:35:21.461Z,3.10
2018-03-22T01:37:49.421Z,3.00
2018-03-22T01:40:16.930Z,3.00
2018-03-22T01:42:44.415Z,3.00
2018-03-22T01:45:11.902Z,3.00
2018-03-22T01:47:39.888Z,3.10
2018-03-22T01:50:07.764Z,3.10
2018-03-22T01:52:35.663Z,3.10
2018-03-22T01:55:03.156Z,3.10
2018-03-22T01:57:30.638Z,3.10
2018-03-22T01:59:58.513Z,3.10
2018-03-22T02:02:26.006Z,3.10
2018-03-22T02:04:53.557Z,3.10
2018-03-22T02:07:21.461Z,3.10
2018-03-22T02:09:49.998Z,3.10
2018-03-22T02:12:17.911Z,3.10
2018-03-22T02:14:45.459Z,3.10
2018-03-22T02:17:12.935Z,3.10
2018-03-22T02:19:40.465Z,3.10
2018-03-22T02:22:08.424Z,3.10
2018-03-22T02:24:35.985Z,3.10
2018-03-22T02:27:03.466Z,3.20
2018-03-22T02:29:31.350Z,3.20
2018-03-22T02:31:59.554Z,3.20
2018-03-22T02:34:27.043Z,3.20
2018-03-22T02:36:55.372Z,3.30
2018-03-22T02:39:22.924Z,3.30
2018-03-22T02:41:50.800Z,3.30
2018-03-22T02:44:18.305Z,3.40
2018-03-22T02:46:45.819Z,3.40
2018-03-22T02:49:13.718Z,3.40
2018-03-22T02:51:41.273Z,3.40
2018-03-22T02:54:08.820Z,3.40
2018-03-22T02:56:36.793Z,3.40
2018-03-22T02:59:04.652Z,3.30
2018-03-22T03:01:32.570Z,3.30
2018-03-22T03:04:00.026Z,3.30
2018-03-22T03:06:27.501Z,3.30
2018-03-22T03:08:54.976Z,3.30
2018-03-22T03:11:22.452Z,3.30
2018-03-22T03:13:50.033Z,3.30
2018-03-22T03:16:17.507Z,3.30
2018-03-22T03:18:45.002Z,3.30
2018-03-22T03:21:12.486Z,3.30
2018-03-22T03:23:39.985Z,3.30
2018-03-22T03:26:07.845Z,3.50
2018-03-22T03:28:35.749Z,3.50
2018-03-22T03:31:03.262Z,3.50
2018-03-22T03:33:30.754Z,3.50
2018-03-22T03:35:58.369Z,3.50
2018-03-22T03:38:25.848Z,3.60
2018-03-22T03:40:53.347Z,3.50
2018-03-22T03:43:21.214Z,3.60
2018-03-22T03:45:49.130Z,3.50
2018-03-22T03:48:16.637Z,3.50
2018-03-22T03:50:44.461Z,3.50
2018-03-22T03:53:11.993Z,3.50
2018-03-22T03:55:39.934Z,3.60
2018-03-22T03:58:07.526Z,3.50
2018-03-22T04:00:35.399Z,3.50
2018-03-22T04:03:03.380Z,3.50
2018-03-22T04:05:31.255Z,3.40
2018-03-22T04:07:59.143Z,3.50
2018-03-22T04:10:26.644Z,3.50
2018-03-22T04:12:54.118Z,3.50
2018-03-22T04:15:22.233Z,3.50
2018-03-22T04:17:51.196Z,3.70
2018-03-22T04:20:18.713Z,3.70
2018-03-22T04:22:46.177Z,3.70
2018-03-22T04:25:13.675Z,3.80
2018-03-22T04:27:41.183Z,3.80
2018-03-22T04:30:08.817Z,3.80
2018-03-22T04:32:36.696Z,3.80
2018-03-22T04:35:04.596Z,3.80
2018-03-22T04:37:32.135Z,3.80
2018-03-22T04:39:59.690Z,3.80
2018-03-22T04:42:27.164Z,3.80
2018-03-22T04:44:55.116Z,3.80
2018-03-22T04:47:22.621Z,3.80
2018-03-22T04:49:50.076Z,3.80
2018-03-22T04:52:17.568Z,3.80
2018-03-22T04:54:45.069Z,3.80
2018-03-22T04:57:12.538Z,3.80
2018-03-22T04:59:40.105Z,3.80
2018-03-22T05:02:08.289Z,3.80
2018-03-22T05:04:35.843Z,3.80
2018-03-22T05:07:03.346Z,3.80
2018-03-22T05:09:30.896Z,3.80
2018-03-22T05:11:58.431Z,3.80
2018-03-22T05:14:25.926Z,3.80
2018-03-22T05:16:53.671Z,3.80
2018-03-22T05:19:21.541Z,3.80
2018-03-22T05:21:49.450Z,3.80
2018-03-22T05:24:16.939Z,3.90
2018-03-22T05:26:44.450Z,3.80
2018-03-22T05:29:12.309Z,3.80
2018-03-22T05:31:40.201Z,3.80
2018-03-22T05:34:07.767Z,3.80
2018-03-22T05:36:35.645Z,3.80
2018-03-22T05:39:03.142Z,3.80
2018-03-22T05:41:30.652Z,3.80
2018-03-22T05:43:58.596Z,3.80
2018-03-22T05:46:26.084Z,3.80
2018-03-22T05:48:53.975Z,3.80
2018-03-22T05:51:21.435Z,3.80
2018-03-22T05:53:49.008Z,3.80
2018-03-22T05:56:16.473Z,3.80
2018-03-22T05:58:43.950Z,3.80
2018-03-22T06:01:11.456Z,3.70
2018-03-22T06:03:39.038Z,3.70
2018-03-22T06:06:07.213Z,3.80
2018-03-22T06:08:35.174Z,3.80
2018-03-22T06:11:03.062Z,3.80
2018-03-22T06:13:30.937Z,3.90
2018-03-22T06:15:58.816Z,3.90
2018-03-22T06:18:26.294Z,3.90
2018-03-22T06:20:53.776Z,3.90
2018-03-22T06:23:21.247Z,3.90
2018-03-22T06:25:48.748Z,3.90
2018-03-22T06:28:16.620Z,4.00
2018-03-22T06:30:44.490Z,4.10
2018-03-22T06:33:12.369Z,4.10
2018-03-22T06:35:40.327Z,4.10
2018-03-22T06:38:08.213Z,4.10
2018-03-22T06:40:36.115Z,4.20
2018-03-22T06:43:03.645Z,4.20
2018-03-22T06:45:31.901Z,4.30
2018-03-22T06:47:59.389Z,4.30
2018-03-22T06:50:27.294Z,4.30
2018-03-22T06:52:54.834Z,4.30
2018-03-22T06:55:22.336Z,4.30
2018-03-22T06:57:49.851Z,4.30
2018-03-22T07:00:17.902Z,4.30
2018-03-22T07:02:45.403Z,4.30
2018-03-22T07:05:12.931Z,4.40
2018-03-22T07:07:41.155Z,4.50
2018-03-22T07:10:08.686Z,4.50
2018-03-22T07:12:36.535Z,4.60
2018-03-22T07:15:04.102Z,4.60
2018-03-22T07:17:32.096Z,4.60
2018-03-22T07:19:59.954Z,4.60
2018-03-22T07:22:27.427Z,4.60
2018-03-22T07:24:55.369Z,4.60
2018-03-22T07:27:22.839Z,4.60
2018-03-22T07:29:50.314Z,4.50
2018-03-22T07:32:18.197Z,4.50
2018-03-22T07:34:46.144Z,4.60
2018-03-22T07:37:13.733Z,4.50
2018-03-22T07:39:41.599Z,4.50
2018-03-22T07:42:09.462Z,4.50
2018-03-22T07:44:40.938Z,4.50
2018-03-22T07:47:08.813Z,4.50
2018-03-22T07:49:36.288Z,4.50
2018-03-22T07:52:03.772Z,4.50
2018-03-22T07:54:31.264Z,4.50
2018-03-22T07:56:58.735Z,4.50
2018-03-22T07:59:26.609Z,4.60
2018-03-22T08:01:54.496Z,4.70
2018-03-22T08:04:22.441Z,4.70
2018-03-22T08:06:50.012Z,4.70
2018-03-22T08:09:17.480Z,4.80
2018-03-22T08:11:45.452Z,4.80
2018-03-22T08:14:12.936Z,4.80
2018-03-22T08:16:40.826Z,4.90
2018-03-22T08:19:08.364Z,4.90
2018-03-22T08:21:36.243Z,5.00
2018-03-22T08:24:04.801Z,5.00
2018-03-22T08:26:32.359Z,4.90
2018-03-22T08:28:59.828Z,5.00
2018-03-22T08:31:28.320Z,5.10
2018-03-22T08:33:55.795Z,5.10
2018-03-22T08:36:23.760Z,5.10
2018-03-22T08:38:51.651Z,5.10
2018-03-22T08:41:19.169Z,5.10
2018-03-22T08:43:46.621Z,5.10
2018-03-22T08:46:14.100Z,5.00
2018-03-22T08:48:41.564Z,5.00
2018-03-22T08:51:09.062Z,5.00
2018-03-22T08:53:36.577Z,5.00
2018-03-22T08:56:04.047Z,4.90
2018-03-22T08:58:31.622Z,4.80
2018-03-22T09:00:59.526Z,4.70
2018-03-22T09:03:27.019Z,4.70
2018-03-22T09:05:54.505Z,4.70
2018-03-22T09:08:21.989Z,4.60
2018-03-22T09:10:50.500Z,4.60
2018-03-22T09:13:17.988Z,4.50
2018-03-22T09:15:45.463Z,4.40
2018-03-22T09:18:12.964Z,4.20
2018-03-22T09:20:40.460Z,4.20
2018-03-22T09:23:07.948Z,4.10
2018-03-22T09:25:35.420Z,4.00
2018-03-22T09:28:03.033Z,4.00
2018-03-22T09:30:30.526Z,4.00
2018-03-22T09:32:58.282Z,4.10
2018-03-22T09:35:26.103Z,4.10
2018-03-22T09:37:53.695Z,4.00
2018-03-22T09:40:21.803Z,4.00
2018-03-22T09:42:49.321Z,4.00
2018-03-22T09:45:17.292Z,3.90
2018-03-22T09:47:45.279Z,3.90
2018-03-22T09:50:13.162Z,3.80
2018-03-22T09:52:42.197Z,3.80
2018-03-22T09:55:09.850Z,3.80
2018-03-22T09:57:37.598Z,3.80
2018-03-22T10:00:05.143Z,3.80
2018-03-22T10:02:33.358Z,3.70
2018-03-22T10:05:01.097Z,3.70
2018-03-22T10:07:28.660Z,3.80
2018-03-22T10:09:57.477Z,3.80
2018-03-22T10:12:25.108Z,3.80
2018-03-22T10:14:53.027Z,3.80
2018-03-22T10:17:20.515Z,3.80
2018-03-22T10:19:48.220Z,3.80
2018-03-22T10:22:15.825Z,3.80
2018-03-22T10:24:43.649Z,3.90
2018-03-22T10:27:11.511Z,3.80
2018-03-22T10:29:39.485Z,3.70
2018-03-22T10:32:07.486Z,3.80
2018-03-22T10:34:35.653Z,3.80
2018-03-22T10:37:03.756Z,3.60
2018-03-22T10:39:31.249Z,3.70
2018-03-22T10:41:58.812Z,3.60
2018-03-22T10:44:26.265Z,3.60
2018-03-22T10:46:53.760Z,3.60
2018-03-22T10:49:21.238Z,3.60
2018-03-22T10:51:49.107Z,3.70
2018-03-22T10:54:16.666Z,3.70
2018-03-22T10:56:44.539Z,3.70
2018-03-22T10:59:12.471Z,3.70
2018-03-22T11:02:01.086Z,3.70
2018-03-22T11:04:28.590Z,3.70
2018-03-22T11:06:56.074Z,3.80
2018-03-22T11:09:24.243Z,3.90
2018-03-22T11:11:52.142Z,3.90
2018-03-22T11:14:19.700Z,3.90
2018-03-22T11:16:47.570Z,4.00
2018-03-22T11:19:15.064Z,4.00
2018-03-22T11:21:42.559Z,4.00
2018-03-22T11:24:10.257Z,4.10
2018-03-22T11:26:38.145Z,4.20
2018-03-22T11:29:05.677Z,4.20
2018-03-22T11:31:34.135Z,4.20
2018-03-22T11:34:01.735Z,4.20
2018-03-22T11:36:29.951Z,4.20
2018-03-22T11:38:57.506Z,4.20
2018-03-22T11:41:25.322Z,4.20
2018-03-22T11:43:52.834Z,4.20
2018-03-22T11:46:20.510Z,4.20
2018-03-22T11:48:47.994Z,4.20
2018-03-22T11:51:15.496Z,4.20
2018-03-22T11:53:43.135Z,4.30
2018-03-22T11:56:10.984Z,4.40
2018-03-22T11:58:40.363Z,4.40
2018-03-22T12:01:08.017Z,4.40
2018-03-22T12:03:35.676Z,4.50
2018-03-22T12:06:03.559Z,4.60
2018-03-22T12:08:31.442Z,4.70
2018-03-22T12:10:58.997Z,4.70
2018-03-22T12:13:26.920Z,4.80
2018-03-22T12:15:54.663Z,4.80
2018-03-22T12:18:23.071Z,4.80
2018-03-22T12:20:50.708Z,4.90
2018-03-22T12:23:18.212Z,4.80
2018-03-22T12:25:45.972Z,4.90
2018-03-22T12:28:13.607Z,4.80
2018-03-22T12:30:41.111Z,4.80
2018-03-22T12:33:08.613Z,4.80
2018-03-22T12:35:36.607Z,4.90
2018-03-22T12:38:04.370Z,4.80
2018-03-22T12:40:31.877Z,4.70
2018-03-22T12:42:59.368Z,4.80
2018-03-22T12:45:27.251Z,4.80
2018-03-22T12:47:54.747Z,4.70
2018-03-22T12:50:22.220Z,4.70
2018-03-22T12:52:49.710Z,4.80
2018-03-22T12:55:17.667Z,4.70
2018-03-22T12:57:45.146Z,4.70
2018-03-22T13:00:12.739Z,4.70
2018-03-22T13:02:40.265Z,4.70
2018-03-22T13:05:07.753Z,4.80
2018-03-22T13:07:35.244Z,4.70
2018-03-22T13:10:02.775Z,4.80
2018-03-22T13:12:30.777Z,4.80
2018-03-22T13:14:58.504Z,4.80
2018-03-22T13:17:26.410Z,4.70
2018-03-22T13:19:53.884Z,4.70
2018-03-22T13:22:22.223Z,4.80
2018-03-22T13:24:50.445Z,4.90
2018-03-22T13:27:17.983Z,4.90
2018-03-22T13:29:45.778Z,4.90
2018-03-22T13:32:13.260Z,5.00
2018-03-22T13:34:40.795Z,5.10
2018-03-22T13:37:08.573Z,5.10
2018-03-22T13:39:36.761Z,5.20
2018-03-22T13:42:04.272Z,5.30
2018-03-22T13:44:32.229Z,5.50
2018-03-22T13:46:59.832Z,5.50
2018-03-22T13:49:27.343Z,5.50
2018-03-22T13:51:54.853Z,5.40
2018-03-22T13:54:22.352Z,5.50
2018-03-22T13:56:51.540Z,5.50
2018-03-22T13:59:19.159Z,5.50
2018-03-22T14:01:47.072Z,5.50
2018-03-22T14:04:14.607Z,5.50
2018-03-22T14:06:42.514Z,5.50
2018-03-22T14:09:10.018Z,5.40
2018-03-22T14:11:37.593Z,5.50
2018-03-22T14:14:05.171Z,5.50
2018-03-22T14:16:32.812Z,5.50
2018-03-22T14:19:00.560Z,5.50
2018-03-22T14:21:28.057Z,5.60
2018-03-22T14:23:55.964Z,5.60
2018-03-22T14:26:23.468Z,5.70
2018-03-22T14:28:50.963Z,5.70
2018-03-22T14:31:18.842Z,5.60
2018-03-22T14:33:47.632Z,5.60
2018-03-22T14:36:15.154Z,5.60
2018-03-22T14:38:42.708Z,5.60
2018-03-22T14:41:10.233Z,5.60
2018-03-22T14:43:37.719Z,5.60
2018-03-22T14:46:05.196Z,5.70
2018-03-22T14:48:32.702Z,5.80
2018-03-22T14:51:00.646Z,5.90
2018-03-22T14:53:28.136Z,5.90
2018-03-22T14:55:56.113Z,5.90
2018-03-22T14:58:24.073Z,5.90
2018-03-22T15:00:51.578Z,5.90
2018-03-22T15:03:19.092Z,6.00
2018-03-22T15:05:47.113Z,6.10
2018-03-22T15:08:14.608Z,6.10
2018-03-22T15:10:42.101Z,6.10
2018-03-22T15:13:09.993Z,6.10
2018-03-22T15:15:37.458Z,6.10
2018-03-22T15:18:04.946Z,6.10
2018-03-22T15:20:32.457Z,6.10
2018-03-22T15:23:00.413Z,6.10
2018-03-22T15:25:27.893Z,6.10
2018-03-22T15:27:55.355Z,6.10
2018-03-22T15:30:22.845Z,6.10
2018-03-22T15:32:50.374Z,6.20
2018-03-22T15:35:17.861Z,6.20
2018-03-22T15:37:45.775Z,6.10
2018-03-22T15:40:13.290Z,6.10
2018-03-22T15:42:41.157Z,6.10
2018-03-22T15:45:09.117Z,6.10
2018-03-22T15:47:37.097Z,6.10
2018-03-22T15:50:04.579Z,6.20
2018-03-22T15:52:32.078Z,6.10
2018-03-22T15:54:59.582Z,6.20
2018-03-22T15:57:27.066Z,6.20
2018-03-22T15:59:54.568Z,6.20
2018-03-22T16:02:22.064Z,6.20
2018-03-22T16:04:49.555Z,6.20
2018-03-22T16:07:17.486Z,6.10
2018-03-22T16:09:44.966Z,6.10
2018-03-22T16:12:12.447Z,6.10
2018-03-22T16:14:40.335Z,6.00
2018-03-22T16:17:07.809Z,6.00
2018-03-22T16:19:35.270Z,6.00
2018-03-22T16:22:02.737Z,6.00
2018-03-22T16:24:30.664Z,6.00
2018-03-22T16:26:58.166Z,6.00
2018-03-22T16:29:25.686Z,6.00
2018-03-22T16:31:53.160Z,6.00
2018-03-22T16:34:21.022Z,5.90
2018-03-22T16:36:49.016Z,6.00
2018-03-22T16:39:16.879Z,6.00
2018-03-22T16:41:44.770Z,5.90
2018-03-22T16:44:13.262Z,5.90
2018-03-22T16:46:40.714Z,5.90
2018-03-22T16:49:08.198Z,5.90
2018-03-22T16:51:35.698Z,5.80
2018-03-22T16:54:03.211Z,5.80
2018-03-22T16:56:30.699Z,5.80
2018-03-22T16:58:58.180Z,5.90
2018-03-22T17:01:25.675Z,5.80
2018-03-22T17:03:53.561Z,5.80
2018-03-22T17:06:22.060Z,5.80
2018-03-22T17:08:49.567Z,5.80
2018-03-22T17:11:17.445Z,5.60
2018-03-22T17:13:45.404Z,5.60
2018-03-22T17:16:12.889Z,5.60
2018-03-22T17:18:40.347Z,5.60
2018-03-22T17:21:08.232Z,5.60
2018-03-22T17:23:36.188Z,5.70
2018-03-22T17:26:03.665Z,5.70
2018-03-22T17:28:31.525Z,5.60
2018-03-22T17:30:59.414Z,5.60
2018-03-22T17:33:26.882Z,5.60
2018-03-22T17:35:54.391Z,5.60
2018-03-22T17:38:22.298Z,5.60
2018-03-22T17:40:50.191Z,5.60
2018-03-22T17:43:17.727Z,5.60
2018-03-22T17:45:45.210Z,5.60
2018-03-22T17:48:12.816Z,5.60
2018-03-22T17:50:40.627Z,5.70
2018-03-22T17:53:08.598Z,5.70
2018-03-22T17:55:36.460Z,5.70
2018-03-22T17:58:03.949Z,5.70
2018-03-22T18:00:32.187Z,5.60
2018-03-22T18:02:59.674Z,5.60
2018-03-22T18:05:27.558Z,5.60
2018-03-22T18:07:55.446Z,5.60
2018-03-22T18:10:22.942Z,5.60
2018-03-22T18:12:50.441Z,5.60
2018-03-22T18:15:17.947Z,5.60
2018-03-22T18:17:45.419Z,5.60
2018-03-22T18:20:12.933Z,5.70
2018-03-22T18:22:40.898Z,5.70
2018-03-22T18:25:08.448Z,5.70
2018-03-22T18:27:35.895Z,5.60
2018-03-22T18:30:03.363Z,5.60
2018-03-22T18:32:30.826Z,5.60
2018-03-22T18:34:58.413Z,5.60
2018-03-22T18:37:25.886Z,5.60
2018-03-22T18:39:53.755Z,5.60
2018-03-22T18:42:21.618Z,5.60
2018-03-22T18:44:49.517Z,5.60
2018-03-22T18:47:17.089Z,5.60
2018-03-22T18:49:44.586Z,5.60
2018-03-22T18:52:12.047Z,5.60
2018-03-22T18:54:39.524Z,5.70
2018-03-22T18:57:07.000Z,5.70
2018-03-22T18:59:34.452Z,5.70
2018-03-22T19:02:02.024Z,5.70
2018-03-22T19:04:29.509Z,5.60
2018-03-22T19:06:57.410Z,5.70
2018-03-22T19:09:24.927Z,5.70
2018-03-22T19:11:52.818Z,5.70
2018-03-22T19:14:22.736Z,5.60
2018-03-22T19:16:50.633Z,5.60
2018-03-22T19:19:18.090Z,5.60
2018-03-22T19:21:45.681Z,5.60
2018-03-22T19:24:13.520Z,5.50
2018-03-22T19:26:41.034Z,5.50
2018-03-22T19:29:08.645Z,5.50
2018-03-22T19:31:36.239Z,5.50
2018-03-22T19:34:03.722Z,5.50
2018-03-22T19:36:31.344Z,5.50
2018-03-22T19:38:58.855Z,5.50
2018-03-22T19:41:26.402Z,5.60
2018-03-22T19:43:53.895Z,5.60
2018-03-22T19:46:21.926Z,5.70
2018-03-22T19:48:49.415Z,5.70
2018-03-22T19:51:16.952Z,5.70
2018-03-22T19:53:44.474Z,5.70
2018-03-22T19:56:13.033Z,5.70
2018-03-22T19:58:40.547Z,5.80
2018-03-22T20:01:08.042Z,5.80
2018-03-22T20:03:35.525Z,5.80
2018-03-22T20:06:03.075Z,5.90
2018-03-22T20:08:31.216Z,5.90
2018-03-22T20:10:58.725Z,5.90
2018-03-22T20:13:26.229Z,5.90
2018-03-22T20:15:53.740Z,6.00
2018-03-22T20:18:21.239Z,6.00
2018-03-22T20:20:49.116Z,6.10
2018-03-22T20:23:16.666Z,6.10
2018-03-22T20:25:44.570Z,6.10
2018-03-22T20:28:12.339Z,6.10
2018-03-22T20:30:39.873Z,6.10
2018-03-22T20:33:08.496Z,6.10
2018-03-22T20:35:35.994Z,6.10
2018-03-22T20:38:03.522Z,6.10
2018-03-22T20:40:31.059Z,6.10
2018-03-22T20:42:58.925Z,6.10
2018-03-22T20:45:26.804Z,6.10
2018-03-22T20:47:54.744Z,6.10
2018-03-22T20:50:22.226Z,6.10
2018-03-22T20:52:50.206Z,6.10
2018-03-22T20:55:18.156Z,6.10
2018-03-22T20:57:46.076Z,6.10
2018-03-22T21:00:13.573Z,6.10
2018-03-22T21:02:41.040Z,6.20
2018-03-22T21:05:08.531Z,6.20
2018-03-22T21:07:36.514Z,6.20
2018-03-22T21:10:04.008Z,6.20
2018-03-22T21:12:31.502Z,6.20
2018-03-22T21:14:58.994Z,6.20
2018-03-22T21:17:26.881Z,6.20
2018-03-22T21:19:54.792Z,6.20
2018-03-22T21:22:22.281Z,6.20
2018-03-22T21:24:49.738Z,6.20
2018-03-22T21:27:17.231Z,6.20
2018-03-22T21:29:45.292Z,6.20
2018-03-22T21:32:12.765Z,6.10
2018-03-22T21:34:40.650Z,6.00
2018-03-22T21:37:08.537Z,6.00
2018-03-22T21:39:36.470Z,5.90
2018-03-22T21:42:08.140Z,5.80
2018-03-22T21:44:36.089Z,5.80
2018-03-22T21:47:15.525Z,5.80
2018-03-22T21:49:42.993Z,5.80
2018-03-22T21:52:22.532Z,5.70
2018-03-22T21:54:50.106Z,5.70
2018-03-22T21:57:17.964Z,5.70
2018-03-22T21:59:45.515Z,5.70
2018-03-22T22:02:12.997Z,5.80
2018-03-22T22:04:41.212Z,5.80
2018-03-22T22:07:08.710Z,5.80
2018-03-22T22:09:36.191Z,5.80
2018-03-22T22:12:03.667Z,5.80
2018-03-22T22:14:31.634Z,5.90
2018-03-22T22:16:59.099Z,5.90
2018-03-22T22:19:26.652Z,5.80
2018-03-22T22:21:54.122Z,5.80
2018-03-22T22:24:21.677Z,5.80
2018-03-22T22:26:49.283Z,5.80
2018-03-22T22:29:16.770Z,5.80
2018-03-22T22:31:44.249Z,5.80
2018-03-22T22:34:13.260Z,5.90
2018-03-22T22:36:41.001Z,5.90
2018-03-22T22:39:08.470Z,5.80
2018-03-22T22:41:35.940Z,5.90
2018-03-22T22:44:03.418Z,5.80
2018-03-22T22:46:30.902Z,5.80
2018-03-22T22:48:58.781Z,5.90
2018-03-22T22:51:26.243Z,5.90
2018-03-22T22:53:53.725Z,6.00
2018-03-22T22:56:21.190Z,6.00
2018-03-22T22:58:48.688Z,6.00
2018-03-22T23:01:16.154Z,6.00
2018-03-22T23:03:43.721Z,6.00
2018-03-22T23:06:11.165Z,6.00
2018-03-22T23:08:38.656Z,6.00
2018-03-22T23:11:06.114Z,6.00
2018-03-22T23:13:33.582Z,6.00
2018-03-22T23:16:01.073Z,5.90
2018-03-22T23:18:28.637Z,5.90
2018-03-22T23:20:57.038Z,5.90
2018-03-22T23:23:24.537Z,5.90
2018-03-22T23:25:52.054Z,5.90
2018-03-22T23:28:19.538Z,5.90
2018-03-22T23:30:47.019Z,6.00
2018-03-22T23:33:14.514Z,6.00
2018-03-22T23:35:42.423Z,6.00
2018-03-22T23:38:09.902Z,6.00
2018-03-22T23:40:37.366Z,6.00
2018-03-22T23:43:04.865Z,6.00
2018-03-22T23:45:32.727Z,6.10
2018-03-22T23:48:00.290Z,6.10
2018-03-22T23:50:28.187Z,6.10
2018-03-22T23:52:56.050Z,6.10
2018-03-22T23:55:24.024Z,6.10
2018-03-22T23:57:51.913Z,6.10
